createdAt,value
2022-07-28T00:02:19.032Z,12.69
2022-07-28T00:04:45.951Z,12.64
2022-07-28T00:07:12.385Z,12.64
2022-07-28T00:09:38.915Z,12.42
2022-07-28T00:12:06.419Z,12.36
2022-07-28T00:14:32.914Z,12.41
2022-07-28T00:17:00.665Z,12.38
2022-07-28T00:19:27.219Z,12.25
2022-07-28T00:21:53.756Z,12.21
2022-07-28T00:24:20.221Z,12.23
2022-07-28T00:26:46.996Z,12.19
2022-07-28T00:29:13.527Z,12.15
2022-07-28T00:31:40.040Z,12.12
2022-07-28T00:34:07.130Z,12.13
2022-07-28T00:36:33.874Z,12.07
2022-07-28T00:39:00.976Z,12.01
2022-07-28T00:41:29.980Z,11.93
2022-07-28T00:43:56.931Z,11.92
2022-07-28T00:46:24.052Z,11.90
2022-07-28T00:48:54.220Z,11.91
2022-07-28T00:51:23.587Z,11.94
2022-07-28T00:53:50.927Z,11.99
2022-07-28T00:56:18.808Z,11.86
2022-07-28T00:58:47.213Z,11.89
2022-07-28T01:01:17.621Z,11.90
2022-07-28T01:03:47.101Z,11.89
2022-07-28T01:06:16.523Z,11.74
2022-07-28T01:09:11.382Z,11.60
2022-07-28T01:11:45.670Z,11.55
2022-07-28T01:14:30.022Z,11.71
2022-07-28T01:17:20.644Z,11.75
2022-07-28T01:20:03.819Z,11.72
2022-07-28T01:22:35.329Z,11.71
2022-07-28T01:25:30.237Z,11.54
2022-07-28T01:28:15.496Z,11.49
2022-07-28T01:30:44.432Z,11.43
2022-07-28T01:33:25.569Z,11.32
2022-07-28T01:35:57.029Z,11.24
2022-07-28T01:38:24.843Z,11.10
2022-07-28T01:40:56.704Z,11.03
2022-07-28T01:43:26.274Z,11.02
2022-07-28T01:45:55.373Z,10.96
2022-07-28T01:48:24.811Z,10.94
2022-07-28T01:50:53.167Z,10.96
2022-07-28T01:53:20.637Z,10.88
2022-07-28T01:55:50.920Z,10.91
2022-07-28T01:58:22.024Z,10.84
2022-07-28T02:00:51.148Z,10.70
2022-07-28T02:03:19.417Z,10.77
2022-07-28T02:05:50.214Z,10.80
2022-07-28T02:08:20.896Z,10.77
2022-07-28T02:11:10.270Z,10.90
2022-07-28T02:13:37.857Z,10.89
2022-07-28T02:16:10.257Z,10.86
2022-07-28T02:18:39.282Z,10.85
2022-07-28T02:21:07.342Z,10.89
2022-07-28T02:23:35.565Z,10.76
2022-07-28T02:26:07.169Z,10.78
2022-07-28T02:28:34.688Z,10.80
2022-07-28T02:31:09.069Z,10.81
2022-07-28T02:33:58.534Z,10.84
2022-07-28T02:36:29.179Z,10.71
2022-07-28T02:39:03.888Z,10.69
2022-07-28T02:41:33.800Z,10.56
2022-07-28T02:44:03.771Z,10.40
2022-07-28T02:46:39.062Z,10.31
2022-07-28T02:49:12.392Z,10.34
2022-07-28T02:51:42.135Z,10.43
2022-07-28T02:54:10.756Z,10.44
2022-07-28T02:56:40.062Z,10.34
2022-07-28T02:59:09.122Z,10.48
2022-07-28T03:01:36.791Z,10.63
2022-07-28T03:04:03.818Z,10.67
2022-07-28T03:06:30.796Z,10.68
2022-07-28T03:08:57.610Z,10.75
2022-07-28T03:11:24.132Z,10.81
2022-07-28T03:13:50.926Z,10.80
2022-07-28T03:16:17.900Z,10.86
2022-07-28T03:18:44.437Z,10.89
2022-07-28T03:21:10.919Z,10.89
2022-07-28T03:23:42.540Z,10.82
2022-07-28T03:26:17.324Z,10.82
2022-07-28T03:28:45.955Z,10.72
2022-07-28T03:31:14.397Z,10.72
2022-07-28T03:33:42.131Z,10.66
2022-07-28T03:36:13.620Z,10.68
2022-07-28T03:38:49.217Z,10.73
2022-07-28T03:41:18.588Z,10.77
2022-07-28T03:43:45.489Z,10.68
2022-07-28T03:46:13.580Z,10.66
2022-07-28T03:48:40.316Z,10.67
2022-07-28T03:51:06.862Z,10.70
2022-07-28T03:53:34.680Z,10.73
2022-07-28T03:56:03.237Z,10.69
2022-07-28T03:58:31.066Z,10.61
2022-07-28T04:00:58.073Z,10.68
2022-07-28T04:03:43.192Z,10.69
2022-07-28T04:06:13.931Z,10.70
2022-07-28T04:08:41.611Z,10.84
2022-07-28T04:11:08.267Z,10.87
2022-07-28T04:13:37.183Z,10.84
2022-07-28T04:16:05.176Z,10.84
2022-07-28T04:18:32.121Z,10.89
2022-07-28T04:20:59.206Z,10.96
2022-07-28T04:23:25.791Z,10.87
2022-07-28T04:25:52.245Z,10.90
2022-07-28T04:28:18.721Z,10.94
2022-07-28T04:30:45.282Z,10.95
2022-07-28T04:33:12.819Z,10.99
2022-07-28T04:35:39.332Z,11.01
2022-07-28T04:38:06.073Z,11.04
2022-07-28T04:40:34.266Z,11.05
2022-07-28T04:43:02.244Z,11.04
2022-07-28T04:45:29.278Z,10.92
2022-07-28T04:47:55.847Z,10.85
2022-07-28T04:50:22.337Z,10.80
2022-07-28T04:52:58.990Z,10.77
2022-07-28T04:55:26.151Z,10.74
2022-07-28T04:57:52.719Z,10.78
2022-07-28T05:00:19.865Z,10.91
2022-07-28T05:02:49.459Z,11.09
2022-07-28T05:05:16.424Z,11.17
2022-07-28T05:07:43.455Z,11.30
2022-07-28T05:10:11.998Z,11.45
2022-07-28T05:12:38.852Z,11.65
2022-07-28T05:15:06.564Z,11.80
2022-07-28T05:17:33.316Z,11.93
2022-07-28T05:20:00.295Z,11.93
2022-07-28T05:22:41.111Z,11.96
2022-07-28T05:25:13.710Z,12.09
2022-07-28T05:27:40.121Z,12.03
2022-07-28T05:30:07.335Z,12.00
2022-07-28T05:32:33.972Z,12.10
2022-07-28T05:35:00.507Z,12.06
2022-07-28T05:37:27.561Z,12.08
2022-07-28T05:39:54.014Z,12.03
2022-07-28T05:42:20.456Z,12.15
2022-07-28T05:44:46.878Z,12.14
2022-07-28T05:47:13.487Z,12.14
2022-07-28T05:49:39.904Z,12.25
2022-07-28T05:52:06.559Z,12.38
2022-07-28T05:54:33.178Z,12.41
2022-07-28T05:56:59.955Z,12.44
2022-07-28T05:59:27.558Z,12.48
2022-07-28T06:01:54.127Z,12.54
2022-07-28T06:04:28.757Z,12.55
2022-07-28T06:06:55.811Z,12.56
2022-07-28T06:09:22.231Z,12.62
2022-07-28T06:11:50.394Z,12.56
2022-07-28T06:14:18.013Z,12.56
2022-07-28T06:16:45.074Z,12.54
2022-07-28T06:19:11.629Z,12.52
2022-07-28T06:21:38.108Z,12.59
2022-07-28T06:24:05.435Z,12.68
2022-07-28T06:26:32.476Z,12.75
2022-07-28T06:29:09.126Z,12.65
2022-07-28T06:31:35.806Z,12.74
2022-07-28T06:34:02.930Z,12.92
2022-07-28T06:36:30.523Z,13.06
2022-07-28T06:39:01.450Z,13.06
2022-07-28T06:41:29.516Z,13.09
2022-07-28T06:44:08.482Z,13.10
2022-07-28T06:46:35.936Z,13.26
2022-07-28T06:49:04.239Z,13.37
2022-07-28T06:51:32.201Z,13.58
2022-07-28T06:53:58.801Z,13.83
2022-07-28T06:56:26.411Z,14.03
2022-07-28T06:58:53.123Z,14.21
2022-07-28T07:01:19.744Z,14.32
2022-07-28T07:03:46.860Z,14.38
2022-07-28T07:06:13.407Z,14.44
2022-07-28T07:08:39.872Z,14.66
2022-07-28T07:11:06.611Z,14.75
2022-07-28T07:13:33.214Z,14.85
2022-07-28T07:16:00.309Z,14.98
2022-07-28T07:18:27.400Z,15.07
2022-07-28T07:20:56.256Z,15.27
2022-07-28T07:23:22.757Z,15.46
2022-07-28T07:25:49.343Z,15.44
2022-07-28T07:28:15.823Z,15.53
2022-07-28T07:30:43.281Z,15.60
2022-07-28T07:33:10.764Z,15.85
2022-07-28T07:35:37.940Z,16.05
2022-07-28T07:38:04.595Z,16.48
2022-07-28T07:40:31.779Z,16.83
2022-07-28T07:42:58.292Z,17.01
2022-07-28T07:45:24.853Z,17.33
2022-07-28T07:47:51.343Z,17.72
2022-07-28T07:50:17.819Z,17.55
2022-07-28T07:52:44.259Z,17.68
2022-07-28T07:55:10.755Z,18.14
2022-07-28T07:57:37.374Z,18.29
2022-07-28T08:00:05.132Z,18.44
2022-07-28T08:02:31.863Z,17.89
2022-07-28T08:04:58.464Z,17.60
2022-07-28T08:07:25.119Z,17.61
2022-07-28T08:09:52.380Z,17.68
2022-07-28T08:12:25.012Z,17.67
2022-07-28T08:14:53.355Z,17.88
2022-07-28T08:17:25.367Z,18.06
2022-07-28T08:19:53.103Z,18.28
2022-07-28T08:22:19.795Z,18.12
2022-07-28T08:24:46.370Z,18.25
2022-07-28T08:27:12.900Z,18.17
2022-07-28T08:29:39.399Z,18.00
2022-07-28T08:32:07.798Z,17.86
2022-07-28T08:34:35.975Z,18.09
2022-07-28T08:37:04.976Z,17.90
2022-07-28T08:39:33.427Z,17.85
2022-07-28T08:42:25.290Z,18.00
2022-07-28T08:44:57.454Z,18.10
2022-07-28T08:47:35.655Z,18.07
2022-07-28T08:50:07.340Z,18.50
2022-07-28T08:52:34.087Z,18.55
2022-07-28T08:55:04.764Z,18.83
2022-07-28T08:57:36.555Z,18.88
2022-07-28T09:00:05.110Z,18.57
2022-07-28T09:02:33.532Z,18.65
2022-07-28T09:05:01.390Z,18.43
2022-07-28T09:07:28.189Z,18.72
2022-07-28T09:10:02.411Z,18.98
2022-07-28T09:12:30.194Z,19.21
2022-07-28T09:14:56.659Z,19.42
2022-07-28T09:17:23.110Z,19.82
2022-07-28T09:19:51.035Z,19.99
2022-07-28T09:22:17.566Z,20.03
2022-07-28T09:24:47.110Z,20.17
2022-07-28T09:27:15.409Z,20.28
2022-07-28T09:29:47.238Z,20.67
2022-07-28T09:32:15.452Z,20.31
2022-07-28T09:34:44.741Z,20.25
2022-07-28T09:37:28.379Z,20.29
2022-07-28T09:40:10.853Z,20.57
2022-07-28T09:42:50.361Z,20.47
2022-07-28T09:45:25.317Z,20.65
2022-07-28T09:48:12.972Z,20.75
2022-07-28T09:50:43.220Z,20.85
2022-07-28T09:53:27.563Z,20.67
2022-07-28T09:56:07.843Z,20.44
2022-07-28T09:58:35.859Z,20.45
2022-07-28T10:01:04.328Z,20.45
2022-07-28T10:03:31.651Z,20.37
2022-07-28T10:05:59.367Z,20.78
2022-07-28T10:08:42.004Z,21.19
2022-07-28T10:11:09.805Z,21.08
2022-07-28T10:13:51.193Z,21.03
2022-07-28T10:16:20.725Z,21.36
2022-07-28T10:18:48.230Z,21.34
2022-07-28T10:21:18.382Z,21.31
2022-07-28T10:23:49.711Z,21.27
2022-07-28T10:26:19.388Z,21.21
2022-07-28T10:28:52.437Z,21.35
2022-07-28T10:31:29.771Z,21.45
2022-07-28T10:33:59.685Z,21.69
2022-07-28T10:36:26.863Z,22.12
2022-07-28T10:39:05.727Z,22.20
2022-07-28T10:41:38.475Z,22.07
2022-07-28T10:44:05.993Z,22.03
2022-07-28T10:46:33.927Z,22.16
2022-07-28T10:49:03.667Z,22.15
2022-07-28T10:51:31.648Z,22.60
2022-07-28T10:54:08.807Z,22.93
2022-07-28T10:56:45.346Z,22.85
2022-07-28T10:59:55.795Z,23.00
2022-07-28T11:02:51.161Z,22.54
2022-07-28T11:05:47.915Z,23.02
2022-07-28T11:08:18.250Z,23.38
2022-07-28T11:10:48.387Z,23.17
2022-07-28T11:13:39.475Z,23.15
2022-07-28T11:16:13.476Z,23.59
2022-07-28T11:22:18.907Z,23.81
2022-07-28T11:25:19.715Z,23.90
2022-07-28T11:27:51.135Z,24.01
2022-07-28T11:30:35.769Z,23.95
2022-07-28T11:33:04.843Z,23.91
2022-07-28T11:35:55.409Z,23.41
2022-07-28T11:38:23.072Z,23.70
2022-07-28T11:40:52.077Z,23.66
2022-07-28T11:43:22.212Z,23.77
2022-07-28T11:45:55.762Z,23.75
2022-07-28T11:48:23.227Z,23.89
2022-07-28T11:51:04.684Z,23.42
2022-07-28T11:53:56.448Z,23.25
2022-07-28T11:56:36.313Z,23.19
2022-07-28T11:59:11.491Z,23.58
2022-07-28T12:01:38.698Z,24.11
2022-07-28T12:04:13.303Z,23.97
2022-07-28T12:06:42.479Z,23.98
2022-07-28T12:09:11.018Z,23.73
2022-07-28T12:11:41.571Z,24.39
2022-07-28T12:14:09.009Z,24.05
2022-07-28T12:16:39.691Z,24.19
2022-07-28T12:19:08.087Z,24.36
2022-07-28T12:21:49.222Z,24.77
2022-07-28T12:24:21.797Z,24.91
2022-07-28T12:26:50.225Z,24.92
2022-07-28T12:29:17.628Z,24.27
2022-07-28T12:31:59.277Z,23.99
2022-07-28T12:34:30.926Z,24.02
2022-07-28T12:37:04.720Z,24.51
2022-07-28T12:39:34.704Z,24.57
2022-07-28T12:42:06.545Z,24.99
2022-07-28T12:44:45.112Z,24.81
2022-07-28T12:47:13.570Z,25.09
2022-07-28T12:49:42.744Z,24.58
2022-07-28T12:52:23.844Z,23.90
2022-07-28T12:54:54.220Z,24.00
2022-07-28T12:57:50.747Z,24.32
2022-07-28T13:00:23.858Z,24.52
2022-07-28T13:02:53.427Z,24.83
2022-07-28T13:05:53.365Z,24.62
2022-07-28T13:08:20.776Z,25.02
2022-07-28T13:10:48.676Z,24.92
2022-07-28T13:13:19.231Z,24.75
2022-07-28T13:16:06.082Z,24.85
2022-07-28T13:18:40.337Z,24.67
2022-07-28T13:21:06.836Z,24.45
2022-07-28T13:23:33.306Z,24.77
2022-07-28T13:25:59.955Z,24.78
2022-07-28T13:28:27.648Z,25.13
2022-07-28T13:30:54.857Z,25.32
2022-07-28T13:33:22.048Z,25.46
2022-07-28T13:35:50.154Z,25.71
2022-07-28T13:38:17.699Z,25.67
2022-07-28T13:40:44.360Z,25.63
2022-07-28T13:43:11.411Z,25.14
2022-07-28T13:45:38.429Z,25.31
2022-07-28T13:48:05.661Z,25.47
2022-07-28T13:50:33.166Z,25.32
2022-07-28T13:52:59.846Z,25.45
2022-07-28T13:55:28.308Z,25.46
2022-07-28T13:57:55.020Z,25.07
2022-07-28T14:00:23.858Z,24.83
2022-07-28T14:02:51.208Z,24.76
2022-07-28T14:05:17.854Z,24.88
2022-07-28T14:07:48.075Z,24.48
2022-07-28T14:10:16.704Z,24.53
2022-07-28T14:12:44.920Z,24.88
2022-07-28T14:15:13.563Z,24.96
2022-07-28T14:17:43.755Z,25.25
2022-07-28T14:20:13.321Z,25.24
2022-07-28T14:22:39.810Z,25.09
2022-07-28T14:25:06.941Z,25.06
2022-07-28T14:27:34.277Z,25.15
2022-07-28T14:30:03.779Z,25.27
2022-07-28T14:32:30.991Z,24.91
2022-07-28T14:34:57.501Z,25.22
2022-07-28T14:37:27.412Z,25.28
2022-07-28T14:39:54.921Z,25.21
2022-07-28T14:42:22.767Z,25.20
2022-07-28T14:44:50.195Z,25.27
2022-07-28T14:47:17.643Z,25.03
2022-07-28T14:49:57.940Z,24.54
2022-07-28T14:52:26.941Z,24.75
2022-07-28T14:54:55.738Z,24.85
2022-07-28T14:57:48.205Z,24.77
2022-07-28T15:00:11.690Z,24.88
2022-07-28T15:02:38.619Z,24.96
2022-07-28T15:05:06.439Z,25.06
2022-07-28T15:07:33.039Z,25.32
2022-07-28T15:09:59.667Z,25.43
2022-07-28T15:12:26.155Z,25.06
2022-07-28T15:14:52.738Z,24.60
2022-07-28T15:17:19.681Z,24.22
2022-07-28T15:19:47.447Z,24.49
2022-07-28T15:22:14.091Z,24.72
2022-07-28T15:24:42.149Z,24.95
2022-07-28T15:27:12.174Z,25.03
2022-07-28T15:29:38.759Z,25.17
2022-07-28T15:32:06.471Z,25.25
2022-07-28T15:34:37.316Z,25.40
2022-07-28T15:37:04.039Z,25.52
2022-07-28T15:39:31.012Z,25.58
2022-07-28T15:41:58.742Z,25.54
2022-07-28T15:44:26.528Z,25.15
2022-07-28T15:46:53.166Z,24.86
2022-07-28T15:49:19.852Z,24.57
2022-07-28T15:51:46.417Z,24.54
2022-07-28T15:54:13.512Z,24.73
2022-07-28T15:56:41.916Z,24.89
2022-07-28T15:59:09.140Z,24.94
2022-07-28T16:01:35.928Z,24.93
2022-07-28T16:04:04.091Z,24.83
2022-07-28T16:06:51.243Z,24.69
2022-07-28T16:09:17.785Z,24.31
2022-07-28T16:11:44.313Z,24.25
2022-07-28T16:14:11.403Z,24.32
2022-07-28T16:16:38.438Z,24.29
2022-07-28T16:19:20.113Z,24.65
2022-07-28T16:21:51.735Z,24.63
2022-07-28T16:24:18.348Z,24.77
2022-07-28T16:26:44.995Z,24.85
2022-07-28T16:29:11.486Z,24.72
2022-07-28T16:31:43.315Z,24.49
2022-07-28T16:34:11.874Z,24.54
2022-07-28T16:36:41.442Z,24.31
2022-07-28T16:39:09.375Z,24.21
2022-07-28T16:41:47.512Z,24.11
2022-07-28T16:44:16.098Z,24.17
2022-07-28T16:46:43.060Z,24.15
2022-07-28T16:49:10.248Z,24.07
2022-07-28T16:51:36.904Z,23.80
2022-07-28T16:54:04.990Z,23.70
2022-07-28T16:56:31.528Z,23.71
2022-07-28T16:59:00.735Z,23.51
2022-07-28T17:01:27.453Z,23.45
2022-07-28T17:03:54.041Z,23.35
2022-07-28T17:06:20.474Z,23.20
2022-07-28T17:08:46.972Z,23.17
2022-07-28T17:11:13.455Z,23.24
2022-07-28T17:13:45.054Z,23.31
2022-07-28T17:16:12.173Z,23.20
2022-07-28T17:18:38.732Z,23.15
2022-07-28T17:21:06.779Z,23.13
2022-07-28T17:23:36.381Z,23.07
2022-07-28T17:27:11.896Z,23.13
2022-07-28T17:28:52.457Z,23.09
2022-07-28T17:31:18.925Z,23.07
2022-07-28T17:33:45.423Z,23.11
2022-07-28T17:36:11.837Z,23.02
2022-07-28T17:38:38.465Z,22.89
2022-07-28T17:41:05.023Z,22.88
2022-07-28T17:43:33.088Z,22.74
2022-07-28T17:46:00.966Z,22.78
2022-07-28T17:48:28.423Z,22.65
2022-07-28T17:50:54.921Z,22.67
2022-07-28T17:53:21.479Z,22.63
2022-07-28T17:56:00.798Z,22.49
2022-07-28T17:58:31.052Z,22.44
2022-07-28T18:01:09.766Z,22.34
2022-07-28T18:03:58.303Z,22.31
2022-07-28T18:06:35.363Z,22.26
2022-07-28T18:09:13.472Z,22.25
2022-07-28T18:11:57.304Z,22.28
2022-07-28T18:14:28.680Z,22.11
2022-07-28T18:16:56.271Z,22.04
2022-07-28T18:19:22.899Z,22.01
2022-07-28T18:21:49.453Z,21.93
2022-07-28T18:24:16.372Z,21.82
2022-07-28T18:26:43.618Z,21.78
2022-07-28T18:29:10.071Z,21.80
2022-07-28T18:31:41.266Z,21.70
2022-07-28T18:34:12.604Z,21.57
2022-07-28T18:36:39.260Z,21.55
2022-07-28T18:39:05.745Z,21.45
2022-07-28T18:41:34.467Z,21.40
2022-07-28T18:44:13.824Z,21.25
2022-07-28T18:46:40.642Z,21.24
2022-07-28T18:49:07.110Z,21.28
2022-07-28T18:51:33.575Z,21.08
2022-07-28T18:54:00.040Z,21.00
2022-07-28T18:56:26.747Z,20.94
2022-07-28T18:58:55.890Z,20.77
2022-07-28T19:01:23.961Z,20.76
2022-07-28T19:03:50.877Z,20.72
2022-07-28T19:06:17.322Z,20.63
2022-07-28T19:08:43.928Z,20.53
2022-07-28T19:11:10.520Z,20.44
2022-07-28T19:13:36.978Z,20.37
2022-07-28T19:16:03.566Z,20.25
2022-07-28T19:18:30.019Z,20.24
2022-07-28T19:20:56.859Z,20.06
2022-07-28T19:23:30.336Z,19.99
2022-07-28T19:25:57.451Z,19.92
2022-07-28T19:28:24.952Z,19.86
2022-07-28T19:30:52.149Z,19.79
2022-07-28T19:33:21.808Z,19.68
2022-07-28T19:35:52.005Z,19.64
2022-07-28T19:38:19.024Z,19.65
2022-07-28T19:40:46.124Z,19.74
2022-07-28T19:43:12.640Z,19.52
2022-07-28T19:45:39.055Z,19.52
2022-07-28T19:48:07.193Z,19.46
2022-07-28T19:50:36.215Z,19.42
2022-07-28T19:53:02.857Z,19.42
2022-07-28T19:55:32.202Z,19.35
2022-07-28T19:57:59.329Z,19.26
2022-07-28T20:00:26.036Z,19.11
2022-07-28T20:02:52.947Z,19.03
2022-07-28T20:05:20.762Z,19.01
2022-07-28T20:07:47.615Z,18.93
2022-07-28T20:10:14.119Z,18.93
2022-07-28T20:12:41.952Z,18.86
2022-07-28T20:15:09.307Z,18.79
2022-07-28T20:17:38.866Z,18.60
2022-07-28T20:20:11.610Z,18.70
2022-07-28T20:22:39.102Z,18.69
2022-07-28T20:25:06.090Z,18.61
2022-07-28T20:27:40.237Z,18.59
2022-07-28T20:30:08.911Z,18.49
2022-07-28T20:32:36.767Z,18.35
2022-07-28T20:35:05.664Z,18.30
2022-07-28T20:37:36.155Z,18.25
2022-07-28T20:40:05.904Z,18.09
2022-07-28T20:42:32.351Z,18.11
2022-07-28T20:44:59.245Z,18.05
2022-07-28T20:47:27.642Z,17.96
2022-07-28T20:49:55.107Z,18.00
2022-07-28T20:52:23.024Z,18.01
2022-07-28T20:54:54.070Z,17.89
2022-07-28T20:57:22.863Z,17.84
2022-07-28T20:59:51.240Z,17.83
2022-07-28T21:02:20.346Z,17.74
2022-07-28T21:04:50.262Z,17.64
2022-07-28T21:07:59.969Z,17.47
2022-07-28T21:10:06.712Z,17.50
2022-07-28T21:12:33.852Z,17.46
2022-07-28T21:15:00.511Z,17.32
2022-07-28T21:17:27.279Z,17.42
2022-07-28T21:19:54.176Z,17.31
2022-07-28T21:22:22.780Z,17.33
2022-07-28T21:24:54.635Z,17.35
2022-07-28T21:27:25.882Z,17.27
2022-07-28T21:32:19.206Z,17.23
2022-07-28T21:34:46.064Z,17.17
2022-07-28T21:37:13.614Z,17.24
2022-07-28T21:39:40.511Z,17.21
2022-07-28T21:42:09.299Z,17.04
2022-07-28T21:44:37.212Z,17.01
2022-07-28T21:47:04.256Z,16.99
2022-07-28T21:49:31.349Z,17.08
2022-07-28T21:51:58.381Z,17.07
2022-07-28T21:54:25.148Z,16.99
2022-07-28T21:56:51.977Z,16.97
2022-07-28T21:59:19.140Z,16.97
2022-07-28T22:01:46.183Z,16.90
2022-07-28T22:04:13.063Z,16.89
2022-07-28T22:06:39.879Z,16.87
2022-07-28T22:09:06.432Z,16.86
2022-07-28T22:11:33.065Z,16.87
2022-07-28T22:13:59.639Z,16.85
2022-07-28T22:16:26.257Z,16.83
2022-07-28T22:18:54.204Z,16.84
2022-07-28T22:21:20.812Z,16.80
2022-07-28T22:23:47.301Z,16.81
2022-07-28T22:26:13.815Z,16.85
2022-07-28T22:28:40.255Z,16.87
2022-07-28T22:31:09.608Z,16.87
2022-07-28T22:33:39.744Z,16.76
2022-07-28T22:36:08.585Z,16.82
2022-07-28T22:38:35.223Z,16.78
2022-07-28T22:41:01.877Z,16.67
2022-07-28T22:43:28.523Z,16.58
2022-07-28T22:45:55.929Z,16.52
2022-07-28T22:48:23.296Z,16.50
2022-07-28T22:50:49.874Z,16.58
2022-07-28T22:53:16.299Z,16.47
2022-07-28T22:55:42.778Z,16.43
2022-07-28T22:58:09.319Z,16.49
2022-07-28T23:00:36.581Z,16.51
2022-07-28T23:03:04.575Z,16.68
2022-07-28T23:05:31.855Z,16.61
2022-07-28T23:07:58.968Z,16.63
2022-07-28T23:10:26.872Z,16.58
2022-07-28T23:12:57.352Z,16.58
2022-07-28T23:15:40.884Z,16.45
2022-07-28T23:18:10.050Z,16.46
2022-07-28T23:20:36.898Z,16.43
2022-07-28T23:23:03.329Z,16.52
2022-07-28T23:25:29.775Z,16.53
2022-07-28T23:27:56.271Z,16.52
2022-07-28T23:30:23.313Z,16.47
2022-07-28T23:32:53.201Z,16.40
2022-07-28T23:35:20.905Z,16.41
2022-07-28T23:37:47.331Z,16.40
2022-07-28T23:40:13.837Z,16.49
2022-07-28T23:42:40.343Z,16.53
2022-07-28T23:45:07.288Z,16.56
2022-07-28T23:47:34.355Z,16.51
2022-07-28T23:50:01.795Z,16.42
2022-07-28T23:52:28.467Z,16.41
2022-07-28T23:54:55.251Z,16.43
2022-07-28T23:57:21.850Z,16.44
2022-07-28T23:59:48.510Z,16.32
